Time;durP1;ratioP1;P1;durP2;ratioP2;P2;SDS_P1;SDS_P2;PMS_P1;PMS_P2;Temp;Humidity;BMP_temperature;BMP_pressure;BME280_temperature;BME280_humidity;BME280_pressure;Samples;Min_cycle;Max_cycle;Signal;HPM_P1;HPM_P2
2024/03/20 00:01:31;;;;;;;14.45;9.10;;;4.80;51.00;;;;;;5041894;28;20032;-45
2024/03/20 00:03:57;;;;;;;18.02;11.30;;;4.80;51.10;;;;;;5054543;28;20028;-45
2024/03/20 00:06:23;;;;;;;16.70;10.05;;;4.80;51.30;;;;;;5050352;28;20116;-45
2024/03/20 00:08:48;;;;;;;20.73;10.60;;;4.70;51.50;;;;;;5043582;28;20500;-45
2024/03/20 00:11:14;;;;;;;19.20;10.27;;;4.70;51.70;;;;;;5047748;28;20029;-47
2024/03/20 00:13:40;;;;;;;16.80;10.80;;;4.70;51.80;;;;;;5046113;28;20481;-45
2024/03/20 00:16:05;;;;;;;19.17;12.25;;;4.70;52.00;;;;;;5062511;28;20040;-45
2024/03/20 00:18:31;;;;;;;17.52;11.73;;;4.60;52.00;;;;;;5051738;28;20032;-45
2024/03/20 00:20:56;;;;;;;18.55;11.23;;;4.60;52.20;;;;;;5045832;28;20056;-45
2024/03/20 00:23:22;;;;;;;18.45;10.70;;;4.60;52.40;;;;;;5050584;28;20023;-45
2024/03/20 00:25:49;;;;;;;19.58;10.73;;;4.50;52.50;;;;;;5049455;28;20063;-46
2024/03/20 00:28:15;;;;;;;19.02;10.48;;;4.50;52.90;;;;;;5047470;28;20112;-47
2024/03/20 00:30:41;;;;;;;19.33;9.98;;;4.40;52.80;;;;;;5045843;28;20107;-47
2024/03/20 00:33:06;;;;;;;15.15;9.00;;;4.40;53.10;;;;;;5049765;28;20025;-45
2024/03/20 00:35:33;;;;;;;15.48;9.20;;;4.40;54.20;;;;;;5045523;28;20029;-45
2024/03/20 00:37:59;;;;;;;15.65;9.70;;;4.40;53.40;;;;;;5046988;28;20053;-47
2024/03/20 00:40:25;;;;;;;22.02;10.88;;;4.40;53.40;;;;;;5056177;28;20512;-48
2024/03/20 00:42:51;;;;;;;14.88;9.02;;;4.30;53.30;;;;;;5050674;28;20063;-46
2024/03/20 00:45:17;;;;;;;24.13;9.98;;;4.30;53.70;;;;;;5050140;28;20090;-48
2024/03/20 00:47:42;;;;;;;17.15;10.85;;;4.20;53.80;;;;;;5045868;28;20021;-45
2024/03/20 00:50:08;;;;;;;20.35;11.20;;;4.10;53.80;;;;;;5045448;28;20032;-49
2024/03/20 00:52:34;;;;;;;17.70;10.95;;;4.10;54.00;;;;;;5045760;28;20600;-47
2024/03/20 00:54:59;;;;;;;17.20;10.88;;;4.00;54.40;;;;;;5058566;28;20111;-46
2024/03/20 00:57:25;;;;;;;18.17;10.77;;;3.90;54.80;;;;;;5044194;28;20047;-47
2024/03/20 00:59:51;;;;;;;17.13;9.60;;;3.80;55.10;;;;;;5042541;28;20115;-46
2024/03/20 01:02:17;;;;;;;18.20;10.63;;;3.70;56.20;;;;;;5043295;28;20257;-45
2024/03/20 01:04:42;;;;;;;17.92;10.48;;;3.70;56.40;;;;;;5041319;28;20013;-45
2024/03/20 01:07:08;;;;;;;15.43;9.32;;;3.60;55.90;;;;;;5061291;28;20033;-45
2024/03/20 01:09:33;;;;;;;15.68;9.40;;;3.60;55.80;;;;;;5043372;28;20036;-44
2024/03/20 01:11:58;;;;;;;15.68;9.57;;;3.50;56.20;;;;;;5043896;28;20108;-48
2024/03/20 01:14:25;;;;;;;19.83;10.82;;;3.40;56.90;;;;;;5045902;28;20516;-45
2024/03/20 01:16:51;;;;;;;19.13;10.27;;;3.40;56.70;;;;;;5043524;28;20027;-44
2024/03/20 01:19:16;;;;;;;18.13;10.70;;;3.30;56.90;;;;;;5049711;28;20396;-46
2024/03/20 01:21:42;;;;;;;18.83;9.30;;;3.20;56.90;;;;;;5046472;28;20705;-46
2024/03/20 01:24:07;;;;;;;18.58;9.52;;;3.10;57.20;;;;;;5056318;28;20037;-46
2024/03/20 01:26:33;;;;;;;16.00;9.55;;;3.10;56.70;;;;;;5046112;28;20385;-46
2024/03/20 01:28:59;;;;;;;19.45;10.32;;;3.00;57.50;;;;;;5049991;28;20031;-47
2024/03/20 01:31:24;;;;;;;19.10;9.52;;;2.90;58.20;;;;;;5053367;28;20021;-49
2024/03/20 01:33:50;;;;;;;15.48;8.95;;;2.80;58.30;;;;;;5044492;28;20154;-44
2024/03/20 01:36:15;;;;;;;16.88;9.23;;;2.70;59.70;;;;;;5050193;28;20520;-48
2024/03/20 01:38:41;;;;;;;19.33;9.27;;;2.60;59.60;;;;;;5050803;28;20103;-45
2024/03/20 01:41:06;;;;;;;17.98;8.73;;;2.50;59.40;;;;;;5042197;28;20514;-44
2024/03/20 01:43:32;;;;;;;17.00;9.70;;;2.40;59.70;;;;;;5048436;28;20040;-44
2024/03/20 01:46:08;;;;;;;22.52;10.23;;;2.20;60.60;;;;;;5040351;28;20036;-46
2024/03/20 01:48:34;;;;;;;17.08;9.20;;;2.20;59.90;;;;;;5046133;28;20028;-46
2024/03/20 01:51:00;;;;;;;18.13;9.77;;;2.10;60.20;;;;;;5040140;28;20035;-44
2024/03/20 01:53:25;;;;;;;17.65;9.75;;;2.10;60.40;;;;;;5052310;28;20541;-45
2024/03/20 01:55:51;;;;;;;17.95;8.98;;;2.00;60.70;;;;;;5044260;28;20083;-44
2024/03/20 01:58:16;;;;;;;19.52;10.25;;;1.90;61.70;;;;;;5049787;28;20028;-44
2024/03/20 02:00:42;;;;;;;20.00;9.80;;;1.80;62.20;;;;;;5036179;28;20029;-44
2024/03/20 02:03:07;;;;;;;17.13;9.10;;;1.80;62.90;;;;;;5043666;28;20029;-46
2024/03/20 02:05:33;;;;;;;17.33;8.80;;;1.70;63.90;;;;;;5039959;28;20977;-45
2024/03/20 02:07:58;;;;;;;17.92;9.05;;;1.70;65.00;;;;;;5039579;28;20037;-44
2024/03/20 02:10:25;;;;;;;17.70;8.73;;;1.60;64.20;;;;;;5039762;28;20353;-46
2024/03/20 02:13:04;;;;;;;16.92;9.10;;;1.50;64.60;;;;;;5048058;28;20082;-46
2024/03/20 02:15:32;;;;;;;18.42;9.10;;;1.50;64.80;;;;;;5046169;28;20083;-44
2024/03/20 02:17:58;;;;;;;18.00;9.60;;;1.50;65.00;;;;;;5039503;28;20063;-44
2024/03/20 02:20:24;;;;;;;16.40;9.07;;;1.40;65.00;;;;;;5038765;28;20052;-45
2024/03/20 02:22:49;;;;;;;20.13;9.52;;;1.30;65.40;;;;;;5043782;28;20378;-50
2024/03/20 02:25:14;;;;;;;17.38;9.45;;;1.30;66.00;;;;;;5053178;28;20032;-45
2024/03/20 02:27:40;;;;;;;17.42;9.25;;;1.20;66.40;;;;;;5044220;28;20035;-44
2024/03/20 02:30:09;;;;;;;14.57;8.15;;;1.20;67.00;;;;;;5039375;28;20033;-47
2024/03/20 02:32:36;;;;;;;16.83;9.35;;;1.10;67.60;;;;;;5045760;28;20564;-45
2024/03/20 02:35:01;;;;;;;18.05;9.55;;;1.10;67.80;;;;;;5041425;28;20297;-44
2024/03/20 02:37:27;;;;;;;18.45;9.65;;;1.10;67.30;;;;;;5049418;28;20043;-44
2024/03/20 02:39:53;;;;;;;19.35;9.93;;;1.00;68.80;;;;;;5049789;28;20435;-46
2024/03/20 02:42:18;;;;;;;16.95;9.60;;;1.00;70.60;;;;;;5059890;28;20604;-46
2024/03/20 02:44:44;;;;;;;18.77;10.10;;;1.00;70.90;;;;;;5043570;28;20520;-45
2024/03/20 02:47:10;;;;;;;14.18;8.80;;;1.00;70.70;;;;;;5045620;28;20056;-45
2024/03/20 02:49:35;;;;;;;15.77;8.80;;;1.00;70.20;;;;;;5052043;28;20028;-46
2024/03/20 02:52:01;;;;;;;17.80;9.80;;;1.00;69.50;;;;;;5040492;28;20079;-44
2024/03/20 02:54:27;;;;;;;18.73;9.88;;;1.00;70.10;;;;;;5043827;28;20017;-45
2024/03/20 02:56:52;;;;;;;20.30;10.45;;;1.00;70.50;;;;;;5043343;28;20025;-44
2024/03/20 02:59:18;;;;;;;20.80;10.95;;;1.10;71.20;;;;;;5039807;28;20036;-46
2024/03/20 03:01:43;;;;;;;21.05;10.48;;;1.10;71.80;;;;;;5039161;28;20404;-46
2024/03/20 03:04:09;;;;;;;17.83;9.30;;;1.20;73.40;;;;;;5051478;28;20028;-47
2024/03/20 03:06:34;;;;;;;19.00;9.52;;;1.30;73.40;;;;;;5047331;28;20108;-47
2024/03/20 03:09:00;;;;;;;16.83;9.10;;;1.40;74.00;;;;;;5045989;28;20048;-46
2024/03/20 03:11:27;;;;;;;20.40;10.70;;;1.50;74.10;;;;;;5044878;28;20147;-47
2024/03/20 03:13:52;;;;;;;16.25;8.63;;;1.60;74.80;;;;;;5043279;28;20035;-44
2024/03/20 03:16:18;;;;;;;19.92;10.35;;;1.70;74.30;;;;;;5051348;28;20028;-48
2024/03/20 03:18:43;;;;;;;23.63;10.55;;;1.70;73.80;;;;;;5044383;28;20404;-44
2024/03/20 03:21:10;;;;;;;19.77;10.30;;;1.80;73.70;;;;;;5044508;28;20075;-46
2024/03/20 03:23:36;;;;;;;20.02;10.38;;;1.90;75.10;;;;;;5043501;28;20020;-46
2024/03/20 03:26:03;;;;;;;21.77;10.75;;;1.90;74.30;;;;;;5044813;28;20052;-45
2024/03/20 03:28:28;;;;;;;16.48;10.05;;;2.00;74.50;;;;;;5036717;28;20021;-44
2024/03/20 03:30:54;;;;;;;24.42;11.80;;;2.00;74.20;;;;;;5047061;28;20032;-45
2024/03/20 03:33:19;;;;;;;21.55;11.02;;;2.10;74.20;;;;;;5041936;28;20407;-46
2024/03/20 03:35:45;;;;;;;20.25;10.00;;;2.10;74.20;;;;;;5042237;28;20091;-45
2024/03/20 03:38:10;;;;;;;23.15;11.30;;;2.10;74.40;;;;;;5042723;28;20029;-47
2024/03/20 03:40:36;;;;;;;18.77;9.07;;;2.20;74.60;;;;;;5044015;28;20448;-45
2024/03/20 03:43:01;;;;;;;16.48;8.45;;;2.20;74.60;;;;;;5050062;28;20035;-45
2024/03/20 03:45:26;;;;;;;20.25;10.85;;;2.30;74.70;;;;;;5047226;28;20087;-46
2024/03/20 03:47:52;;;;;;;18.88;10.05;;;2.30;74.80;;;;;;5042244;28;20477;-44
2024/03/20 03:50:18;;;;;;;19.83;11.10;;;2.30;74.50;;;;;;5042591;28;20099;-46
2024/03/20 03:52:43;;;;;;;24.17;11.75;;;2.30;74.20;;;;;;5051802;28;20110;-44
2024/03/20 03:55:09;;;;;;;18.05;10.55;;;2.30;74.50;;;;;;5051612;28;20111;-46
2024/03/20 03:57:34;;;;;;;19.58;9.85;;;2.40;74.90;;;;;;5042514;28;20037;-44
2024/03/20 04:00:00;;;;;;;24.75;12.30;;;2.40;75.50;;;;;;5040082;28;20043;-45
2024/03/20 04:02:27;;;;;;;22.42;11.70;;;2.40;75.00;;;;;;5043840;28;20104;-48
2024/03/20 04:04:53;;;;;;;21.73;11.52;;;2.50;74.80;;;;;;5046201;28;20013;-45
2024/03/20 04:07:18;;;;;;;17.90;9.98;;;2.50;75.00;;;;;;5054387;28;20097;-46
2024/03/20 04:09:44;;;;;;;23.70;11.18;;;2.40;74.90;;;;;;5046988;28;20285;-46
2024/03/20 04:12:09;;;;;;;21.20;10.35;;;2.40;75.00;;;;;;5042489;28;20029;-45
2024/03/20 04:14:35;;;;;;;16.08;9.27;;;2.40;75.10;;;;;;5045828;28;20603;-46
2024/03/20 04:17:00;;;;;;;21.70;11.68;;;2.40;74.80;;;;;;5051677;28;20408;-44
2024/03/20 04:19:26;;;;;;;18.30;9.95;;;2.40;75.30;;;;;;5043056;28;20040;-46
2024/03/20 04:21:55;;;;;;;20.73;10.52;;;2.50;75.40;;;;;;5042390;28;20033;-44
2024/03/20 04:24:21;;;;;;;27.73;12.15;;;2.40;75.20;;;;;;5041685;28;20027;-46
2024/03/20 04:26:46;;;;;;;21.48;10.77;;;2.40;75.40;;;;;;5043467;28;20017;-46
2024/03/20 04:29:12;;;;;;;24.08;12.27;;;2.50;75.80;;;;;;5046059;28;20113;-47
2024/03/20 04:31:38;;;;;;;25.45;12.48;;;2.60;76.20;;;;;;5043574;28;20025;-46
2024/03/20 04:34:03;;;;;;;23.33;11.80;;;2.60;75.40;;;;;;5042128;28;20028;-44
2024/03/20 04:36:29;;;;;;;23.20;12.77;;;2.60;74.50;;;;;;5060867;28;20120;-47
2024/03/20 04:38:54;;;;;;;24.45;13.75;;;2.70;75.00;;;;;;5045719;28;20358;-47
2024/03/20 04:41:22;;;;;;;25.13;12.80;;;2.80;74.50;;;;;;5043660;28;20398;-47
2024/03/20 04:43:49;;;;;;;25.25;12.60;;;2.80;74.50;;;;;;5049053;28;20078;-44
2024/03/20 04:46:14;;;;;;;24.83;13.00;;;2.90;74.70;;;;;;5048505;28;20147;-45
2024/03/20 04:48:40;;;;;;;15.93;10.10;;;2.90;74.80;;;;;;5047071;28;20121;-44
2024/03/20 04:51:05;;;;;;;22.90;11.88;;;3.00;75.10;;;;;;5045269;28;20453;-44
2024/03/20 04:53:31;;;;;;;23.65;11.45;;;3.00;74.50;;;;;;5046756;28;20024;-45
2024/03/20 04:55:57;;;;;;;24.15;12.68;;;3.10;74.40;;;;;;5045714;28;20420;-45
2024/03/20 04:58:23;;;;;;;20.23;12.05;;;3.10;74.40;;;;;;5043244;28;20101;-45
2024/03/20 05:00:49;;;;;;;26.00;13.32;;;3.20;74.20;;;;;;5035194;28;20048;-46
2024/03/20 05:03:14;;;;;;;25.20;12.85;;;3.20;73.80;;;;;;5046443;28;20089;-49
2024/03/20 05:05:41;;;;;;;31.42;14.65;;;3.10;74.10;;;;;;5043246;28;20021;-48
2024/03/20 05:08:07;;;;;;;24.10;13.27;;;3.20;73.90;;;;;;5042399;28;20029;-48
2024/03/20 05:10:32;;;;;;;20.55;11.40;;;3.20;74.10;;;;;;5045038;28;20040;-46
2024/03/20 05:12:58;;;;;;;29.95;13.80;;;3.30;74.00;;;;;;5047230;28;20033;-46
2024/03/20 05:15:23;;;;;;;25.40;12.70;;;3.30;73.70;;;;;;5043110;28;20044;-49
2024/03/20 05:17:49;;;;;;;24.95;14.02;;;3.40;73.90;;;;;;5049448;28;20033;-46
2024/03/20 05:20:15;;;;;;;23.92;13.35;;;3.40;73.60;;;;;;5043299;28;20036;-49
2024/03/20 05:22:41;;;;;;;25.50;14.07;;;3.40;73.60;;;;;;5047741;28;20107;-51
2024/03/20 05:25:06;;;;;;;29.52;15.75;;;3.50;73.20;;;;;;5050019;28;20117;-47
2024/03/20 05:27:32;;;;;;;25.90;13.90;;;3.50;73.20;;;;;;5045859;28;20025;-49
2024/03/20 05:29:58;;;;;;;29.98;15.75;;;3.50;73.10;;;;;;5039450;28;20040;-48
2024/03/20 05:32:23;;;;;;;31.67;15.80;;;3.60;73.00;;;;;;5044365;28;20028;-47
2024/03/20 05:34:49;;;;;;;26.52;14.38;;;3.60;72.90;;;;;;5044496;28;20039;-50
2024/03/20 05:37:15;;;;;;;27.40;13.98;;;3.60;73.20;;;;;;5054201;28;20500;-46
2024/03/20 05:39:40;;;;;;;21.85;12.48;;;3.70;73.20;;;;;;5042887;28;20515;-49
2024/03/20 05:42:06;;;;;;;30.60;15.73;;;3.70;73.00;;;;;;5040329;28;20033;-49
2024/03/20 05:44:31;;;;;;;28.27;14.63;;;3.70;72.60;;;;;;5042501;28;20025;-47
2024/03/20 05:46:57;;;;;;;32.17;15.73;;;3.70;72.60;;;;;;5048029;28;20036;-45
2024/03/20 05:49:23;;;;;;;24.02;13.93;;;3.70;72.70;;;;;;5041174;28;20108;-46
2024/03/20 05:51:49;;;;;;;29.48;17.27;;;3.80;72.50;;;;;;5041262;28;20079;-47
2024/03/20 05:54:18;;;;;;;34.63;17.58;;;3.80;72.50;;;;;;5044311;28;20311;-49
2024/03/20 05:56:44;;;;;;;31.80;16.23;;;3.90;72.30;;;;;;5040117;28;20075;-46
2024/03/20 05:59:10;;;;;;;27.80;15.43;;;3.90;72.40;;;;;;5036654;28;20033;-48
2024/03/20 06:01:35;;;;;;;31.45;16.67;;;3.90;72.70;;;;;;5043492;28;20083;-49
2024/03/20 06:04:01;;;;;;;34.38;17.42;;;3.90;72.50;;;;;;5044221;28;20040;-48
2024/03/20 06:06:30;;;;;;;28.85;14.77;;;3.90;72.60;;;;;;5044225;28;20021;-49
2024/03/20 06:08:55;;;;;;;25.75;15.60;;;4.00;72.30;;;;;;5039385;28;20072;-49
2024/03/20 06:11:22;;;;;;;23.35;13.27;;;4.10;72.40;;;;;;5041621;28;20060;-50
2024/03/20 06:13:50;;;;;;;33.70;18.92;;;4.10;72.30;;;;;;5041926;28;20100;-46
2024/03/20 06:16:16;;;;;;;29.25;17.75;;;4.20;71.80;;;;;;5039573;28;20045;-51
2024/03/20 06:18:42;;;;;;;25.50;15.88;;;4.30;71.80;;;;;;5056712;28;20465;-46
2024/03/20 06:21:10;;;;;;;30.58;16.10;;;4.30;71.60;;;;;;5042229;28;20512;-46
2024/03/20 06:23:35;;;;;;;32.03;16.75;;;4.50;71.50;;;;;;5046755;28;20019;-50
2024/03/20 06:26:01;;;;;;;28.50;16.38;;;4.50;71.20;;;;;;5044920;28;20485;-50
2024/03/20 06:28:26;;;;;;;29.58;16.08;;;4.60;71.90;;;;;;5039539;28;20067;-50
2024/03/20 06:30:55;;;;;;;31.27;17.65;;;4.60;71.00;;;;;;5045087;28;20100;-48
2024/03/20 06:33:21;;;;;;;31.23;17.13;;;4.70;70.90;;;;;;5044009;28;20496;-49
2024/03/20 06:35:47;;;;;;;27.73;16.27;;;4.70;70.80;;;;;;5043662;28;20041;-47
2024/03/20 06:38:14;;;;;;;24.95;16.15;;;4.80;70.70;;;;;;5040868;28;20056;-48
2024/03/20 06:40:42;;;;;;;30.15;16.98;;;4.80;70.50;;;;;;5037438;28;20017;-49
2024/03/20 06:43:07;;;;;;;34.22;18.80;;;4.90;70.40;;;;;;5039644;28;20499;-51
2024/03/20 06:45:38;;;;;;;27.77;15.15;;;5.00;70.20;;;;;;5043555;28;20028;-49
2024/03/20 06:48:04;;;;;;;29.50;15.43;;;5.00;70.00;;;;;;5047471;28;20465;-49
2024/03/20 06:50:30;;;;;;;30.30;16.25;;;5.10;70.10;;;;;;5049823;28;20048;-48
2024/03/20 06:52:57;;;;;;;25.25;14.13;;;5.20;69.80;;;;;;5049925;28;20036;-50
2024/03/20 06:55:23;;;;;;;23.50;13.85;;;5.30;69.70;;;;;;5041176;28;20017;-50
2024/03/20 06:57:49;;;;;;;27.92;14.45;;;5.40;69.40;;;;;;5043301;28;20488;-52
2024/03/20 07:00:17;;;;;;;32.58;16.58;;;5.50;69.30;;;;;;5045420;28;20025;-53
2024/03/20 07:02:44;;;;;;;24.98;14.65;;;5.60;69.20;;;;;;5047796;28;20413;-47
2024/03/20 07:05:10;;;;;;;27.80;15.38;;;5.60;69.00;;;;;;5045118;28;20096;-48
2024/03/20 07:07:35;;;;;;;27.90;15.80;;;5.70;68.80;;;;;;5044290;28;20017;-48
2024/03/20 07:10:01;;;;;;;26.25;14.52;;;5.70;68.60;;;;;;5051014;28;20517;-48
2024/03/20 07:12:26;;;;;;;23.38;13.82;;;5.90;68.50;;;;;;5055334;28;20036;-49
2024/03/20 07:14:52;;;;;;;29.13;14.85;;;6.00;68.50;;;;;;5053091;28;20037;-51
2024/03/20 07:17:17;;;;;;;25.08;15.52;;;6.30;68.20;;;;;;5047426;28;20036;-46
2024/03/20 07:19:43;;;;;;;32.08;18.75;;;6.50;66.90;;;;;;5047330;28;20491;-47
2024/03/20 07:22:10;;;;;;;28.00;15.82;;;6.60;66.70;;;;;;5053360;28;20028;-51
2024/03/20 07:24:35;;;;;;;25.52;15.60;;;6.80;66.50;;;;;;5047357;28;20116;-52
2024/03/20 07:27:01;;;;;;;28.33;17.00;;;6.90;66.40;;;;;;5046977;28;20116;-48
2024/03/20 07:29:27;;;;;;;25.52;14.70;;;7.10;66.40;;;;;;5048320;28;20074;-51
2024/03/20 07:31:52;;;;;;;23.27;14.40;;;7.20;65.70;;;;;;5052359;28;20469;-47
2024/03/20 07:34:18;;;;;;;24.67;14.80;;;7.30;65.80;;;;;;5046121;28;20597;-49
2024/03/20 07:36:43;;;;;;;28.80;17.58;;;7.40;65.30;;;;;;5048171;28;20024;-49
2024/03/20 07:39:10;;;;;;;30.90;16.27;;;7.60;65.10;;;;;;5044034;28;20095;-49
2024/03/20 07:41:36;;;;;;;28.17;15.40;;;7.90;64.10;;;;;;5042508;28;20037;-48
2024/03/20 07:44:02;;;;;;;25.77;15.38;;;8.20;64.60;;;;;;5050595;28;20066;-47
2024/03/20 07:46:27;;;;;;;25.38;15.77;;;8.50;64.30;;;;;;5052582;28;20044;-48
2024/03/20 07:48:52;;;;;;;31.38;17.33;;;8.80;63.30;;;;;;5046920;28;20029;-50
2024/03/20 07:51:19;;;;;;;26.30;16.75;;;9.00;62.20;;;;;;5042590;28;20123;-49
2024/03/20 07:53:45;;;;;;;32.40;18.08;;;9.40;61.50;;;;;;5049852;28;20546;-47
2024/03/20 07:56:12;;;;;;;25.42;15.70;;;9.70;60.60;;;;;;5043851;28;20036;-46
2024/03/20 07:58:37;;;;;;;29.58;16.65;;;10.00;59.70;;;;;;5045517;28;20032;-50
2024/03/20 08:01:04;;;;;;;29.05;18.25;;;10.40;58.70;;;;;;5045744;28;20170;-45
2024/03/20 08:03:31;;;;;;;28.00;18.35;;;10.90;56.20;;;;;;5043508;28;20665;-45
2024/03/20 08:05:57;;;;;;;33.10;18.25;;;11.20;55.10;;;;;;5046509;28;20108;-45
2024/03/20 08:08:23;;;;;;;28.80;17.27;;;11.50;53.90;;;;;;5043520;28;20040;-43
2024/03/20 08:10:48;;;;;;;26.58;16.55;;;11.60;52.00;;;;;;5046056;28;20055;-44
2024/03/20 08:13:14;;;;;;;29.40;17.30;;;11.80;50.00;;;;;;5047149;28;20017;-46
2024/03/20 08:15:40;;;;;;;24.10;15.50;;;12.10;50.20;;;;;;5045325;28;20031;-44
2024/03/20 08:18:10;;;;;;;22.48;15.25;;;12.60;51.20;;;;;;5049316;28;20043;-46
2024/03/20 08:20:38;;;;;;;29.17;14.15;;;13.10;51.00;;;;;;5047527;28;20183;-44
2024/03/20 08:23:04;;;;;;;22.92;15.65;;;13.80;51.30;;;;;;5044647;28;20096;-46
2024/03/20 08:25:30;;;;;;;25.08;15.43;;;14.00;49.40;;;;;;5045999;28;20027;-46
2024/03/20 08:27:57;;;;;;;28.90;17.60;;;14.20;48.90;;;;;;5041500;28;20509;-47
2024/03/20 08:30:23;;;;;;;26.88;17.08;;;14.40;43.90;;;;;;5046776;28;20024;-49
2024/03/20 08:32:48;;;;;;;25.60;15.95;;;14.70;44.60;;;;;;5044438;28;20027;-44
2024/03/20 08:35:16;;;;;;;24.95;15.65;;;15.10;45.10;;;;;;5047995;28;20056;-43
2024/03/20 08:37:45;;;;;;;26.45;16.95;;;15.40;44.00;;;;;;5045966;28;20024;-47
2024/03/20 08:40:14;;;;;;;25.25;17.33;;;15.40;40.00;;;;;;5045534;28;20508;-43
2024/03/20 08:42:41;;;;;;;23.30;14.80;;;15.10;37.30;;;;;;5043262;28;20557;-43
2024/03/20 08:45:08;;;;;;;22.23;15.20;;;14.90;37.30;;;;;;5041594;28;20017;-43
2024/03/20 08:47:34;;;;;;;30.40;17.73;;;15.00;37.90;;;;;;5043428;28;20033;-44
2024/03/20 08:50:00;;;;;;;21.20;14.23;;;15.00;36.10;;;;;;5048144;28;20032;-44
2024/03/20 08:52:25;;;;;;;19.02;11.85;;;15.00;36.10;;;;;;5046439;28;20036;-47
2024/03/20 08:54:51;;;;;;;18.58;12.38;;;15.20;37.00;;;;;;5044359;28;20408;-44
2024/03/20 08:57:17;;;;;;;20.55;13.63;;;15.60;38.10;;;;;;5042886;28;20488;-46
2024/03/20 08:59:43;;;;;;;22.33;14.52;;;15.80;37.70;;;;;;5045180;28;20041;-44
2024/03/20 09:02:09;;;;;;;19.92;14.43;;;16.00;36.10;;;;;;5043562;28;20040;-47
2024/03/20 09:04:35;;;;;;;17.45;12.02;;;16.20;35.90;;;;;;5044990;28;20389;-46
2024/03/20 09:07:00;;;;;;;19.63;12.60;;;16.40;36.00;;;;;;5040979;28;20036;-47
2024/03/20 09:09:26;;;;;;;20.35;11.55;;;16.60;35.40;;;;;;5040959;28;20497;-45
2024/03/20 09:11:52;;;;;;;18.65;13.00;;;17.00;34.80;;;;;;5042634;28;20415;-44
2024/03/20 09:14:18;;;;;;;17.33;12.40;;;17.30;33.60;;;;;;5043972;28;20021;-47
2024/03/20 09:16:44;;;;;;;19.75;13.05;;;17.20;30.00;;;;;;5045180;28;20106;-46
2024/03/20 09:19:10;;;;;;;20.23;14.77;;;17.40;29.60;;;;;;5044382;28;20036;-43
2024/03/20 09:21:38;;;;;;;21.75;15.57;;;17.40;26.70;;;;;;5040785;28;20384;-46
2024/03/20 09:24:05;;;;;;;15.68;10.85;;;17.30;24.30;;;;;;5043594;28;20495;-44
2024/03/20 09:26:33;;;;;;;17.52;11.10;;;17.20;24.70;;;;;;5044788;28;20092;-45
2024/03/20 09:28:59;;;;;;;16.50;12.00;;;17.30;25.40;;;;;;5044337;28;20028;-49
2024/03/20 09:31:25;;;;;;;18.35;11.98;;;17.50;25.30;;;;;;5040180;28;20090;-45
2024/03/20 09:33:51;;;;;;;15.45;10.52;;;17.60;24.90;;;;;;5042552;28;20033;-46
2024/03/20 09:36:16;;;;;;;14.07;9.43;;;17.80;24.30;;;;;;5040280;28;20485;-48
2024/03/20 09:38:42;;;;;;;12.07;8.70;;;18.20;24.40;;;;;;5044600;28;20127;-50
2024/03/20 09:41:15;;;;;;;10.40;8.05;;;18.60;24.30;;;;;;5048526;28;20431;-48
2024/03/20 09:43:41;;;;;;;14.20;9.35;;;18.90;22.80;;;;;;5045973;28;20110;-50
2024/03/20 09:46:11;;;;;;;11.73;8.50;;;19.00;23.50;;;;;;5043383;28;20497;-51
2024/03/20 09:48:37;;;;;;;14.95;9.93;;;19.10;23.10;;;;;;5054856;28;20016;-51
2024/03/20 09:51:03;;;;;;;14.75;10.45;;;19.30;23.20;;;;;;5047840;28;20547;-48
2024/03/20 09:53:34;;;;;;;14.07;10.05;;;19.20;21.50;;;;;;5044683;28;20068;-45
2024/03/20 09:56:09;;;;;;;12.38;9.13;;;19.00;20.00;;;;;;5044831;28;20024;-50
2024/03/20 09:58:40;;;;;;;9.95;8.10;;;18.90;20.50;;;;;;5043585;28;20032;-48
2024/03/20 10:01:12;;;;;;;10.07;7.55;;;18.80;19.70;;;;;;5038170;28;20024;-51
2024/03/20 10:03:38;;;;;;;9.70;7.57;;;18.70;18.60;;;;;;5044676;28;20024;-49
2024/03/20 10:06:05;;;;;;;9.90;7.40;;;18.70;18.80;;;;;;5044997;28;20103;-50
2024/03/20 10:08:32;;;;;;;8.90;7.25;;;18.80;18.20;;;;;;5039963;28;20044;-51
2024/03/20 10:10:57;;;;;;;10.95;7.13;;;18.70;18.10;;;;;;5051415;28;20111;-50
2024/03/20 10:13:23;;;;;;;8.73;6.78;;;18.70;17.60;;;;;;5052714;28;20633;-50
2024/03/20 10:16:07;;;;;;;9.13;6.70;;;18.70;17.50;;;;;;5049888;28;20041;-49
2024/03/20 10:18:32;;;;;;;9.38;6.82;;;18.60;16.60;;;;;;5041710;28;20025;-46
2024/03/20 10:20:58;;;;;;;9.02;7.07;;;18.60;17.20;;;;;;5052823;28;20031;-48
2024/03/20 10:23:24;;;;;;;10.35;7.95;;;18.50;17.30;;;;;;5046982;28;20033;-49
2024/03/20 10:25:49;;;;;;;11.90;8.55;;;18.50;16.60;;;;;;5049347;28;20376;-49
2024/03/20 10:28:19;;;;;;;11.80;9.07;;;18.30;16.50;;;;;;5039981;28;20151;-49
2024/03/20 10:30:46;;;;;;;13.98;8.98;;;17.40;14.00;;;;;;5046164;28;20091;-48
2024/03/20 10:33:19;;;;;;;11.02;8.32;;;17.40;15.40;;;;;;5039137;28;20051;-49
2024/03/20 10:35:53;;;;;;;15.65;9.43;;;17.20;15.70;;;;;;5052218;28;20029;-44
2024/03/20 10:38:19;;;;;;;11.07;7.82;;;16.90;15.70;;;;;;5048142;28;20466;-50
2024/03/20 10:40:49;;;;;;;10.93;8.02;;;17.00;15.90;;;;;;5043056;28;20150;-44
2024/03/20 10:43:21;;;;;;;13.48;7.72;;;17.00;15.80;;;;;;5042645;28;20107;-44
2024/03/20 10:45:50;;;;;;;14.25;8.45;;;16.90;16.00;;;;;;5043215;28;20036;-48
2024/03/20 10:48:17;;;;;;;11.77;8.18;;;17.10;16.20;;;;;;5042409;28;20025;-44
2024/03/20 10:50:46;;;;;;;13.68;9.80;;;17.10;16.20;;;;;;5049484;28;20304;-45
2024/03/20 10:53:13;;;;;;;14.70;8.88;;;17.10;16.10;;;;;;5037694;28;20150;-44
2024/03/20 10:55:39;;;;;;;12.77;7.82;;;16.90;16.40;;;;;;5037086;28;20509;-45
2024/03/20 10:58:06;;;;;;;13.23;8.30;;;16.90;16.60;;;;;;5047256;28;20029;-43
2024/03/20 11:00:31;;;;;;;12.27;8.13;;;16.80;16.70;;;;;;5038337;28;20415;-45
2024/03/20 11:02:57;;;;;;;14.43;8.73;;;16.60;16.60;;;;;;5039909;28;20046;-47
2024/03/20 11:05:39;;;;;;;13.75;7.93;;;16.50;16.90;;;;;;5043336;28;20094;-44
2024/03/20 11:08:08;;;;;;;11.50;7.57;;;16.60;17.50;;;;;;5043333;28;20029;-47
2024/03/20 11:10:35;;;;;;;14.07;7.97;;;16.70;17.10;;;;;;5045600;28;20033;-57
2024/03/20 11:13:02;;;;;;;12.20;8.45;;;16.70;17.10;;;;;;5049212;28;20033;-56
2024/03/20 11:15:29;;;;;;;15.50;8.55;;;16.70;17.10;;;;;;5047112;28;20032;-56
2024/03/20 11:17:55;;;;;;;12.25;8.00;;;16.70;17.30;;;;;;5047094;28;20060;-57
2024/03/20 11:20:33;;;;;;;12.95;8.40;;;16.70;17.80;;;;;;5047205;28;20025;-56
2024/03/20 11:23:19;;;;;;;14.43;8.93;;;16.70;18.10;;;;;;5039489;28;20029;-56
2024/03/20 11:25:45;;;;;;;11.40;7.85;;;16.70;18.00;;;;;;5044052;28;20036;-57
2024/03/20 11:28:12;;;;;;;16.02;10.07;;;16.80;18.10;;;;;;5043466;28;20033;-56
2024/03/20 11:30:38;;;;;;;16.38;8.50;;;16.60;18.90;;;;;;5042821;28;20540;-56
2024/03/20 11:33:04;;;;;;;12.90;7.53;;;16.60;18.60;;;;;;5051864;28;20017;-57
2024/03/20 11:35:31;;;;;;;11.60;6.97;;;16.60;18.70;;;;;;5052350;28;20021;-57
2024/03/20 11:37:57;;;;;;;16.08;9.02;;;16.60;18.70;;;;;;5039110;28;20516;-57
2024/03/20 11:40:23;;;;;;;8.40;6.50;;;16.60;19.10;;;;;;5043862;28;20029;-57
2024/03/20 11:42:50;;;;;;;10.70;6.43;;;16.60;19.20;;;;;;5042613;28;20035;-57
2024/03/20 11:45:16;;;;;;;11.40;7.05;;;16.70;19.30;;;;;;5047342;28;20079;-56
2024/03/20 11:47:42;;;;;;;17.70;8.13;;;16.70;19.00;;;;;;5050170;28;20029;-56
2024/03/20 11:50:13;;;;;;;15.43;8.60;;;16.70;18.80;;;;;;5043025;28;20017;-57
2024/03/20 11:52:38;;;;;;;14.95;7.57;;;16.70;18.90;;;;;;5043544;28;20025;-57
2024/03/20 11:55:08;;;;;;;13.38;7.38;;;16.70;18.90;;;;;;5050978;28;20039;-56
2024/03/20 11:57:34;;;;;;;13.02;8.60;;;16.80;18.80;;;;;;5045068;28;20529;-57
2024/03/20 12:00:00;;;;;;;17.52;10.60;;;16.80;18.70;;;;;;5043804;28;20119;-57
2024/03/20 12:02:32;;;;;;;13.65;8.73;;;16.70;19.10;;;;;;5043425;28;20492;-57
2024/03/20 12:04:58;;;;;;;14.68;8.07;;;16.60;19.20;;;;;;5042201;28;20404;-57
2024/03/20 12:07:28;;;;;;;14.02;8.63;;;16.60;19.30;;;;;;5044196;28;20025;-58
2024/03/20 12:09:54;;;;;;;12.43;7.03;;;16.70;19.40;;;;;;5052761;28;20496;-58
2024/03/20 12:12:22;;;;;;;13.18;7.85;;;16.70;19.50;;;;;;5043119;28;20029;-57
2024/03/20 12:14:49;;;;;;;12.95;7.28;;;16.80;19.90;;;;;;5046465;28;20040;-57
2024/03/20 12:17:14;;;;;;;12.13;6.55;;;16.90;19.90;;;;;;5054457;28;20016;-58
2024/03/20 12:19:40;;;;;;;10.27;6.38;;;16.90;19.90;;;;;;5043777;28;20060;-58
2024/03/20 12:22:08;;;;;;;11.95;7.68;;;17.00;20.00;;;;;;5048692;28;20017;-57
2024/03/20 12:24:33;;;;;;;14.10;8.05;;;17.00;20.00;;;;;;5051093;28;20063;-57
2024/03/20 12:26:59;;;;;;;8.25;6.07;;;16.90;19.90;;;;;;5051577;28;20502;-58
2024/03/20 12:29:25;;;;;;;9.23;5.53;;;17.00;20.20;;;;;;5052755;28;20043;-59
2024/03/20 12:31:50;;;;;;;13.85;8.10;;;17.00;20.20;;;;;;5047804;28;20029;-57
2024/03/20 12:34:17;;;;;;;12.00;7.25;;;17.00;20.00;;;;;;5047224;28;20400;-58